Time;durP1;ratioP1;P1;durP2;ratioP2;P2;SDS_P1;SDS_P2;PMS_P1;PMS_P2;Temp;Humidity;BMP_temperature;BMP_pressure;BME280_temperature;BME280_humidity;BME280_pressure;Samples;Min_cycle;Max_cycle;Signal;HPM_P1;HPM_P2
2023/05/27 00:02:05;;;;;;;3.95;3.65;;;19.20;99.90;;;;;;5019955;28;20295;-68
2023/05/27 00:04:32;;;;;;;3.25;3.05;;;19.20;99.90;;;;;;5017247;28;20666;-68
2023/05/27 00:07:00;;;;;;;3.40;3.15;;;19.10;99.90;;;;;;5018952;28;20307;-67
2023/05/27 00:09:27;;;;;;;3.53;3.22;;;19.00;99.90;;;;;;5021888;28;20263;-67
2023/05/27 00:11:54;;;;;;;3.42;3.13;;;19.00;99.90;;;;;;5020397;28;20286;-67
2023/05/27 00:14:21;;;;;;;3.90;3.60;;;18.90;99.90;;;;;;5018835;28;20749;-67
2023/05/27 00:16:51;;;;;;;3.97;3.67;;;18.90;99.90;;;;;;5018086;28;20748;-67
2023/05/27 00:19:18;;;;;;;3.67;3.38;;;18.90;99.90;;;;;;5019123;28;20196;-67
2023/05/27 00:21:45;;;;;;;3.65;3.28;;;18.90;99.90;;;;;;5016281;28;20604;-67
2023/05/27 00:24:13;;;;;;;3.60;3.35;;;18.80;99.90;;;;;;5017170;28;20290;-68
2023/05/27 00:26:41;;;;;;;3.85;3.55;;;18.80;99.90;;;;;;5014148;28;20302;-68
2023/05/27 00:29:08;;;;;;;3.75;3.45;;;18.80;99.90;;;;;;5016110;28;20203;-67
2023/05/27 00:31:35;;;;;;;3.80;3.50;;;18.80;99.90;;;;;;5015208;28;20203;-68
2023/05/27 00:34:03;;;;;;;3.25;2.95;;;18.80;99.90;;;;;;5020798;28;20299;-68
2023/05/27 00:36:31;;;;;;;3.22;3.03;;;18.80;99.90;;;;;;5016711;28;20251;-67
2023/05/27 00:38:58;;;;;;;3.38;3.08;;;18.70;99.90;;;;;;5016593;28;20788;-68
2023/05/27 00:41:28;;;;;;;3.75;3.45;;;18.70;99.90;;;;;;5016981;28;20282;-68
2023/05/27 00:43:56;;;;;;;3.60;3.30;;;18.70;99.90;;;;;;5022260;28;20255;-68
2023/05/27 00:46:24;;;;;;;3.90;3.55;;;18.70;99.90;;;;;;5031139;28;20754;-67
2023/05/27 00:48:51;;;;;;;3.80;3.50;;;18.70;99.90;;;;;;5032537;28;20199;-68
2023/05/27 00:51:18;;;;;;;3.80;3.50;;;18.60;99.90;;;;;;5018675;28;20280;-68
2023/05/27 00:53:45;;;;;;;3.70;3.40;;;18.60;99.90;;;;;;5017169;28;20208;-68
2023/05/27 00:56:15;;;;;;;3.30;3.10;;;18.60;99.90;;;;;;5013534;28;20283;-67
2023/05/27 00:58:44;;;;;;;4.20;3.67;;;18.60;99.90;;;;;;5015964;28;20200;-67
2023/05/27 01:01:11;;;;;;;3.47;3.17;;;18.60;99.90;;;;;;5015492;28;20286;-67
2023/05/27 01:03:41;;;;;;;4.57;3.35;;;18.60;99.90;;;;;;5017711;28;20290;-67
2023/05/27 01:06:16;;;;;;;3.25;2.95;;;18.50;99.90;;;;;;5017976;28;20351;-67
2023/05/27 01:08:53;;;;;;;3.22;3.03;;;18.50;99.90;;;;;;5017721;28;20389;-67
2023/05/27 01:11:26;;;;;;;3.45;3.15;;;18.50;99.90;;;;;;5018674;28;20589;-67
2023/05/27 01:13:58;;;;;;;3.53;3.33;;;18.50;99.90;;;;;;5017449;28;20204;-67
2023/05/27 01:16:28;;;;;;;3.72;3.42;;;18.50;99.90;;;;;;5018023;28;20216;-68
2023/05/27 01:18:59;;;;;;;3.60;3.30;;;18.40;99.90;;;;;;5017856;28;20200;-68
2023/05/27 01:21:31;;;;;;;4.30;3.30;;;18.40;99.90;;;;;;5017929;28;20235;-68
2023/05/27 01:24:05;;;;;;;3.80;3.50;;;18.40;99.90;;;;;;5018044;28;20227;-67
2023/05/27 01:26:33;;;;;;;3.58;3.28;;;18.40;99.90;;;;;;5017219;28;20342;-68
2023/05/27 01:29:00;;;;;;;3.67;3.38;;;18.30;99.90;;;;;;5018657;28;20282;-68
2023/05/27 01:31:34;;;;;;;3.53;3.03;;;18.30;99.90;;;;;;5018849;28;20211;-68
2023/05/27 01:34:04;;;;;;;3.90;3.60;;;18.20;99.90;;;;;;5021208;28;20304;-67
2023/05/27 01:36:38;;;;;;;3.55;3.25;;;18.20;99.90;;;;;;5018333;28;20238;-67
2023/05/27 01:39:11;;;;;;;3.78;3.53;;;18.20;99.90;;;;;;5015516;28;20876;-67
2023/05/27 01:41:39;;;;;;;4.50;4.10;;;18.10;99.90;;;;;;5014398;28;20212;-67
2023/05/27 01:44:07;;;;;;;3.50;3.30;;;18.10;99.90;;;;;;5012479;28;20224;-67
2023/05/27 01:46:35;;;;;;;3.70;3.40;;;18.10;99.90;;;;;;5021305;28;20302;-68
2023/05/27 01:49:02;;;;;;;3.65;3.38;;;18.10;99.90;;;;;;5015610;28;20224;-67
2023/05/27 01:51:29;;;;;;;3.72;3.42;;;18.00;99.90;;;;;;5017434;28;20227;-67
2023/05/27 01:53:56;;;;;;;3.50;3.20;;;18.00;99.90;;;;;;5018019;28;20202;-67
2023/05/27 01:56:24;;;;;;;3.70;3.50;;;18.00;99.90;;;;;;5013888;28;20310;-67
2023/05/27 01:58:51;;;;;;;3.85;3.55;;;18.00;99.90;;;;;;5014913;28;20290;-68
2023/05/27 02:01:19;;;;;;;3.58;3.38;;;18.00;99.90;;;;;;5012944;28;20295;-68
2023/05/27 02:03:46;;;;;;;4.00;3.70;;;18.00;99.90;;;;;;5016812;28;20203;-68
2023/05/27 02:06:13;;;;;;;4.22;3.90;;;18.00;99.90;;;;;;5019276;28;20223;-68
2023/05/27 02:08:40;;;;;;;4.03;3.63;;;18.00;99.90;;;;;;5041247;28;20195;-68
2023/05/27 02:11:07;;;;;;;3.92;3.63;;;18.00;99.90;;;;;;5025403;28;20522;-68
2023/05/27 02:13:36;;;;;;;4.00;3.70;;;18.00;99.90;;;;;;5017207;28;20294;-68
2023/05/27 02:16:03;;;;;;;4.05;3.75;;;17.90;99.90;;;;;;5019691;28;20207;-68
2023/05/27 02:18:31;;;;;;;4.20;3.90;;;17.90;99.90;;;;;;5019490;28;20290;-68
2023/05/27 02:20:58;;;;;;;3.92;3.53;;;17.90;99.90;;;;;;5014555;28;20200;-68
2023/05/27 02:23:25;;;;;;;5.35;4.30;;;17.90;99.90;;;;;;5020922;28;20723;-68
2023/05/27 02:25:52;;;;;;;3.97;3.60;;;17.80;99.90;;;;;;5013345;28;20575;-68
2023/05/27 02:28:19;;;;;;;4.03;3.72;;;17.80;99.90;;;;;;5020347;28;20310;-68
2023/05/27 02:30:47;;;;;;;4.00;3.70;;;17.80;99.90;;;;;;5020660;28;20575;-68
2023/05/27 02:33:14;;;;;;;4.22;3.92;;;17.80;99.90;;;;;;5019525;28;20303;-68
2023/05/27 02:35:41;;;;;;;4.40;4.10;;;17.80;99.90;;;;;;5017998;28;20206;-68
2023/05/27 02:38:09;;;;;;;4.30;4.00;;;17.70;99.90;;;;;;5015663;28;20311;-68
2023/05/27 02:40:36;;;;;;;4.70;4.30;;;17.70;99.90;;;;;;5004563;28;20211;-68
2023/05/27 02:43:03;;;;;;;4.72;4.32;;;17.70;99.90;;;;;;5019249;28;20200;-69
2023/05/27 02:45:30;;;;;;;4.00;3.70;;;17.70;99.90;;;;;;5020587;28;20285;-69
2023/05/27 02:48:01;;;;;;;5.10;4.60;;;17.70;99.90;;;;;;5018188;28;20449;-68
2023/05/27 02:50:28;;;;;;;4.60;4.30;;;17.60;99.90;;;;;;5018892;28;20208;-68
2023/05/27 02:52:55;;;;;;;4.22;3.92;;;17.60;99.90;;;;;;5018010;28;20979;-69
2023/05/27 02:55:22;;;;;;;4.47;4.07;;;17.50;99.90;;;;;;5022629;28;20397;-69
2023/05/27 02:57:49;;;;;;;4.60;4.20;;;17.50;99.90;;;;;;5022338;28;20250;-68
2023/05/27 03:00:17;;;;;;;5.20;4.80;;;17.40;99.90;;;;;;5020603;28;20235;-68
2023/05/27 03:02:44;;;;;;;5.10;4.70;;;17.30;99.90;;;;;;5013547;28;20660;-68
2023/05/27 03:05:12;;;;;;;4.75;4.35;;;17.40;99.90;;;;;;5021038;28;20279;-68
2023/05/27 03:07:40;;;;;;;4.90;4.50;;;17.40;99.90;;;;;;5015107;28;20252;-68
2023/05/27 03:10:08;;;;;;;5.07;4.68;;;17.40;99.90;;;;;;5025575;28;20783;-68
2023/05/27 03:12:35;;;;;;;4.97;4.43;;;17.40;99.90;;;;;;5020557;28;20300;-68
2023/05/27 03:15:02;;;;;;;4.95;4.55;;;17.30;99.90;;;;;;5022505;28;20279;-69
2023/05/27 03:17:30;;;;;;;4.65;4.30;;;17.10;99.90;;;;;;5020969;28;20354;-67
2023/05/27 03:19:57;;;;;;;4.90;4.50;;;17.10;99.90;;;;;;5023500;28;20772;-68
2023/05/27 03:22:25;;;;;;;4.72;4.32;;;17.10;99.90;;;;;;5020006;28;20743;-68
2023/05/27 03:24:53;;;;;;;4.22;3.92;;;17.10;99.90;;;;;;5022204;28;20231;-68
2023/05/27 03:27:21;;;;;;;4.85;4.47;;;17.10;99.90;;;;;;5022745;28;20231;-68
2023/05/27 03:29:48;;;;;;;5.70;5.20;;;17.00;99.90;;;;;;5020033;28;20200;-68
2023/05/27 03:32:15;;;;;;;4.95;4.40;;;17.00;99.90;;;;;;5016260;28;20239;-68
2023/05/27 03:34:42;;;;;;;4.72;4.43;;;16.90;99.90;;;;;;5021715;28;20199;-68
2023/05/27 03:37:09;;;;;;;4.70;4.40;;;16.90;99.90;;;;;;5024219;28;20828;-67
2023/05/27 03:39:38;;;;;;;5.75;5.28;;;16.90;99.90;;;;;;5017658;28;20199;-68
2023/05/27 03:42:06;;;;;;;5.50;5.05;;;16.80;99.90;;;;;;5016551;28;20296;-68
2023/05/27 03:44:33;;;;;;;5.38;4.88;;;16.80;99.90;;;;;;5018939;28;20196;-68
2023/05/27 03:47:03;;;;;;;4.40;4.10;;;16.80;99.90;;;;;;5021620;28;20311;-68
2023/05/27 03:49:30;;;;;;;5.10;4.72;;;16.90;99.90;;;;;;5021836;28;20291;-68
2023/05/27 03:51:58;;;;;;;5.72;5.25;;;16.90;99.90;;;;;;5018034;28;20278;-68
2023/05/27 03:54:25;;;;;;;5.60;4.72;;;16.90;99.90;;;;;;5020673;28;20200;-68
2023/05/27 03:56:53;;;;;;;4.55;4.25;;;16.90;99.90;;;;;;5019805;28;20696;-68
2023/05/27 03:59:20;;;;;;;5.13;4.63;;;16.90;99.90;;;;;;5014600;28;20240;-68
2023/05/27 04:01:48;;;;;;;4.55;4.25;;;17.00;99.90;;;;;;5018260;28;20287;-68
2023/05/27 04:04:15;;;;;;;4.70;4.40;;;17.00;99.90;;;;;;5021292;28;20192;-68
2023/05/27 04:06:43;;;;;;;4.80;4.40;;;17.10;99.90;;;;;;5017996;28;20280;-68
2023/05/27 04:09:10;;;;;;;4.45;3.97;;;17.10;99.90;;;;;;5020949;28;20271;-68
2023/05/27 04:11:37;;;;;;;4.88;4.40;;;17.10;99.90;;;;;;5021500;28;20299;-68
2023/05/27 04:14:07;;;;;;;4.57;4.18;;;17.20;99.90;;;;;;5020017;28;20286;-68
2023/05/27 04:16:35;;;;;;;4.63;4.22;;;17.20;99.90;;;;;;5022868;28;20228;-68
2023/05/27 04:19:02;;;;;;;4.63;4.22;;;17.30;99.90;;;;;;5017978;28;20299;-67
2023/05/27 04:21:29;;;;;;;4.75;4.35;;;17.30;99.90;;;;;;5019655;28;20204;-68
2023/05/27 04:23:56;;;;;;;4.20;3.90;;;17.30;99.90;;;;;;5021619;28;20931;-68
2023/05/27 04:26:23;;;;;;;4.82;4.43;;;17.30;99.90;;;;;;5021545;28;20310;-68
2023/05/27 04:28:50;;;;;;;3.92;3.63;;;17.20;99.90;;;;;;5016977;28;20236;-67
2023/05/27 04:31:19;;;;;;;4.80;4.40;;;17.30;99.90;;;;;;5016009;28;20192;-68
2023/05/27 04:33:46;;;;;;;4.82;4.43;;;17.30;99.90;;;;;;5022004;28;20287;-68
2023/05/27 04:36:17;;;;;;;4.50;4.13;;;17.30;99.90;;;;;;5020495;28;20224;-67
2023/05/27 04:38:45;;;;;;;4.85;4.35;;;17.30;99.90;;;;;;5017481;28;20676;-68
2023/05/27 04:41:11;;;;;;;4.47;4.18;;;17.30;99.90;;;;;;5018779;28;20677;-67
2023/05/27 04:43:41;;;;;;;4.68;4.28;;;17.30;99.90;;;;;;5017456;28;20291;-68
2023/05/27 04:46:08;;;;;;;4.60;4.30;;;17.30;99.90;;;;;;5020316;28;20231;-68
2023/05/27 04:48:37;;;;;;;4.72;4.43;;;17.30;99.90;;;;;;5019662;28;20262;-68
2023/05/27 04:51:04;;;;;;;4.35;3.95;;;17.40;99.90;;;;;;5017647;28;20854;-68
2023/05/27 04:53:32;;;;;;;4.35;4.03;;;17.50;99.90;;;;;;5019985;28;20231;-68
2023/05/27 04:55:59;;;;;;;4.38;3.97;;;17.60;99.90;;;;;;5018614;28;20196;-68
2023/05/27 04:58:26;;;;;;;4.20;3.90;;;17.70;99.90;;;;;;5017088;28;20196;-68
2023/05/27 05:00:56;;;;;;;4.32;4.03;;;17.80;99.90;;;;;;5012274;28;20833;-67
2023/05/27 05:03:36;;;;;;;4.75;4.40;;;17.90;99.90;;;;;;5017881;28;20294;-68
2023/05/27 05:06:05;;;;;;;4.55;4.15;;;17.90;99.90;;;;;;5016433;28;20206;-68
2023/05/27 05:08:32;;;;;;;4.93;4.22;;;17.90;99.90;;;;;;5022463;28;20310;-68
2023/05/27 05:11:00;;;;;;;4.95;4.53;;;18.00;99.90;;;;;;5016245;28;20292;-68
2023/05/27 05:13:28;;;;;;;4.75;4.45;;;18.20;99.90;;;;;;5018163;28;20219;-68
2023/05/27 05:15:56;;;;;;;5.20;4.75;;;18.30;99.90;;;;;;5015645;28;20222;-68
2023/05/27 05:18:23;;;;;;;5.97;5.47;;;18.50;99.90;;;;;;5022011;28;20279;-68
2023/05/27 05:20:50;;;;;;;5.43;4.93;;;18.60;99.90;;;;;;5032743;28;20200;-67
2023/05/27 05:23:19;;;;;;;5.57;5.07;;;18.60;99.90;;;;;;5037714;28;20226;-67
2023/05/27 05:25:47;;;;;;;5.45;4.95;;;18.60;99.90;;;;;;5018217;28;20565;-67
2023/05/27 05:28:14;;;;;;;5.32;4.82;;;18.50;99.90;;;;;;5018018;28;20222;-67
2023/05/27 05:30:41;;;;;;;5.45;4.95;;;18.50;99.90;;;;;;5018761;28;20305;-68
2023/05/27 05:33:08;;;;;;;5.45;5.05;;;18.50;99.90;;;;;;5015182;28;20291;-68
2023/05/27 05:35:35;;;;;;;5.15;4.75;;;18.50;99.90;;;;;;5010534;28;20287;-68
2023/05/27 05:38:02;;;;;;;4.05;3.72;;;18.50;99.90;;;;;;5015807;28;20313;-68
2023/05/27 05:40:31;;;;;;;5.85;5.35;;;18.60;99.90;;;;;;5018059;28;20728;-67
2023/05/27 05:42:58;;;;;;;4.90;4.50;;;18.60;99.90;;;;;;5016550;28;20231;-68
2023/05/27 05:45:25;;;;;;;5.22;4.40;;;18.60;99.90;;;;;;5016675;28;20724;-67
2023/05/27 05:47:52;;;;;;;5.40;4.90;;;18.70;99.90;;;;;;5014064;28;20230;-67
2023/05/27 05:50:19;;;;;;;5.43;4.93;;;18.70;99.90;;;;;;5019823;28;20728;-68
2023/05/27 05:52:46;;;;;;;4.80;4.40;;;18.70;99.90;;;;;;5015078;28;20199;-67
2023/05/27 05:55:13;;;;;;;5.60;5.07;;;18.90;99.90;;;;;;5017074;28;20204;-67
2023/05/27 05:57:41;;;;;;;5.30;4.80;;;19.10;99.90;;;;;;5018740;28;20255;-67
2023/05/27 06:00:11;;;;;;;5.68;5.18;;;19.30;99.90;;;;;;5016750;28;20291;-67
2023/05/27 06:02:38;;;;;;;6.07;5.47;;;19.30;99.90;;;;;;5015023;28;20214;-68
2023/05/27 06:05:05;;;;;;;5.70;4.85;;;19.20;99.90;;;;;;5019440;28;20290;-67
2023/05/27 06:07:33;;;;;;;5.53;5.03;;;19.30;99.90;;;;;;5014874;28;20255;-68
2023/05/27 06:10:00;;;;;;;5.30;4.82;;;19.30;99.90;;;;;;5013943;28;20204;-68
2023/05/27 06:12:27;;;;;;;5.65;5.20;;;19.40;99.90;;;;;;5022568;28;20364;-68
2023/05/27 06:14:55;;;;;;;6.00;5.38;;;19.40;99.90;;;;;;5018308;28;20286;-68
2023/05/27 06:17:22;;;;;;;6.97;5.40;;;19.40;99.90;;;;;;5014136;28;20306;-68
2023/05/27 06:19:49;;;;;;;7.45;5.82;;;19.50;99.90;;;;;;5016330;28;20283;-67
2023/05/27 06:22:16;;;;;;;5.78;5.28;;;19.70;99.90;;;;;;5017033;28;20681;-68
2023/05/27 06:24:43;;;;;;;5.38;4.97;;;19.90;99.90;;;;;;5018006;28;20199;-68
2023/05/27 06:27:10;;;;;;;5.50;4.97;;;20.00;99.90;;;;;;5015463;28;20302;-67
2023/05/27 06:29:38;;;;;;;6.30;5.80;;;20.10;99.90;;;;;;5018252;28;20226;-67
2023/05/27 06:32:08;;;;;;;6.30;5.78;;;20.20;99.90;;;;;;5015492;28;20235;-67
2023/05/27 06:34:35;;;;;;;7.00;6.28;;;20.40;99.90;;;;;;5015256;28;20744;-68
2023/05/27 06:37:02;;;;;;;6.78;6.18;;;20.30;99.90;;;;;;5015712;28;20595;-67
2023/05/27 06:39:29;;;;;;;5.57;5.13;;;20.30;99.90;;;;;;5015136;28;20891;-67
2023/05/27 06:41:56;;;;;;;6.68;6.07;;;20.40;99.90;;;;;;5016587;28;20291;-67
2023/05/27 06:44:23;;;;;;;6.78;6.18;;;20.50;99.90;;;;;;5011830;28;20311;-67
2023/05/27 06:46:50;;;;;;;6.50;6.00;;;20.60;99.90;;;;;;5015364;28;20799;-67
2023/05/27 06:49:19;;;;;;;6.10;5.60;;;20.60;99.90;;;;;;5008942;28;20334;-67
2023/05/27 06:51:46;;;;;;;8.65;6.47;;;20.90;99.90;;;;;;5015982;28;20247;-67
2023/05/27 06:54:13;;;;;;;7.05;6.15;;;21.00;99.90;;;;;;5011009;28;20299;-67
2023/05/27 06:56:40;;;;;;;7.88;6.18;;;21.30;99.90;;;;;;5010342;28;20223;-68
2023/05/27 06:59:07;;;;;;;6.05;5.50;;;21.50;99.90;;;;;;5018202;28;20287;-67
2023/05/27 07:01:34;;;;;;;6.95;6.35;;;21.70;99.90;;;;;;5018024;28;20312;-69
2023/05/27 07:04:01;;;;;;;7.60;6.47;;;21.70;99.90;;;;;;5018291;28;20203;-68
2023/05/27 07:06:30;;;;;;;6.88;6.15;;;21.90;99.90;;;;;;5018596;28;20291;-68
2023/05/27 07:08:58;;;;;;;7.45;6.65;;;21.90;99.90;;;;;;5017728;28;20516;-68
2023/05/27 07:11:26;;;;;;;7.05;6.35;;;21.80;99.90;;;;;;5019819;28;20208;-68
2023/05/27 07:13:53;;;;;;;8.88;6.10;;;21.90;99.90;;;;;;5019372;28;20743;-68
2023/05/27 07:16:20;;;;;;;7.18;6.55;;;21.90;99.90;;;;;;5021258;28;20266;-68
2023/05/27 07:18:47;;;;;;;6.30;5.63;;;21.80;99.90;;;;;;5021755;28;20199;-69
2023/05/27 07:21:14;;;;;;;5.97;5.47;;;21.80;99.90;;;;;;5022302;28;20716;-67
2023/05/27 07:23:43;;;;;;;7.10;5.63;;;21.90;99.90;;;;;;5020735;28;20258;-68
2023/05/27 07:26:10;;;;;;;5.90;5.38;;;21.90;99.90;;;;;;5020312;28;20929;-68
2023/05/27 07:28:38;;;;;;;5.70;5.20;;;22.00;99.90;;;;;;5015292;28;20238;-68
2023/05/27 07:31:05;;;;;;;6.25;5.75;;;22.20;99.90;;;;;;5014070;28;20205;-68
2023/05/27 07:33:32;;;;;;;6.30;5.70;;;22.50;99.90;;;;;;5018050;28;20209;-68
2023/05/27 07:35:59;;;;;;;5.53;4.95;;;22.50;99.90;;;;;;5018895;28;20290;-68
2023/05/27 07:38:26;;;;;;;5.72;5.22;;;22.50;99.90;;;;;;5014769;28;20223;-68
2023/05/27 07:40:55;;;;;;;5.70;5.18;;;22.60;99.90;;;;;;5018540;28;20254;-68
2023/05/27 07:43:22;;;;;;;5.55;5.07;;;22.70;99.90;;;;;;5018941;28;20710;-69
2023/05/27 07:45:49;;;;;;;5.47;4.50;;;22.60;99.90;;;;;;5018655;28;20353;-69
2023/05/27 07:48:16;;;;;;;5.30;4.85;;;22.70;99.90;;;;;;5016648;28;20251;-69
2023/05/27 07:50:43;;;;;;;5.40;4.90;;;22.80;99.90;;;;;;5022387;28;20258;-69
2023/05/27 07:53:10;;;;;;;5.80;5.20;;;22.90;99.90;;;;;;5020330;28;20243;-69
2023/05/27 07:55:37;;;;;;;5.53;5.13;;;22.90;99.90;;;;;;5017266;28;20279;-69
2023/05/27 07:58:06;;;;;;;5.45;5.05;;;23.00;99.90;;;;;;5019019;28;20785;-69
2023/05/27 08:00:33;;;;;;;5.15;4.65;;;23.10;99.90;;;;;;5018883;28;20203;-69
2023/05/27 08:03:00;;;;;;;5.28;4.88;;;23.20;99.90;;;;;;5018809;28;20735;-68
2023/05/27 08:05:27;;;;;;;5.00;4.50;;;23.20;99.90;;;;;;5017956;28;20236;-69
2023/05/27 08:07:54;;;;;;;6.22;5.03;;;23.50;99.90;;;;;;5013147;28;20307;-69
2023/05/27 08:10:22;;;;;;;5.30;4.90;;;23.60;99.90;;;;;;5015200;28;20228;-69
2023/05/27 08:12:49;;;;;;;5.55;5.05;;;23.50;99.90;;;;;;5028666;28;20234;-68
2023/05/27 08:15:17;;;;;;;5.70;5.20;;;23.50;99.90;;;;;;5036097;28;20204;-68
2023/05/27 08:17:44;;;;;;;6.85;5.35;;;23.50;99.90;;;;;;5015805;28;20228;-69
2023/05/27 08:20:12;;;;;;;5.95;5.25;;;23.50;99.90;;;;;;5016775;28;20295;-69
2023/05/27 08:22:39;;;;;;;5.57;5.05;;;23.70;99.90;;;;;;5015336;28;20294;-68
2023/05/27 08:25:06;;;;;;;5.95;5.32;;;23.90;99.90;;;;;;5013044;28;20291;-69
2023/05/27 08:27:44;;;;;;;5.57;5.07;;;24.00;99.90;;;;;;5011525;28;20219;-69
2023/05/27 08:30:12;;;;;;;6.35;5.75;;;24.10;99.90;;;;;;5011238;28;20747;-69
2023/05/27 08:32:41;;;;;;;5.95;5.35;;;24.10;99.90;;;;;;5010962;28;20207;-69
2023/05/27 08:35:10;;;;;;;5.72;5.22;;;24.00;99.90;;;;;;5014149;28;20200;-69
2023/05/27 08:37:37;;;;;;;6.35;5.72;;;24.10;99.90;;;;;;4996455;28;20768;-69
2023/05/27 08:40:06;;;;;;;5.85;5.22;;;24.20;99.90;;;;;;5010137;28;20200;-69
2023/05/27 08:42:34;;;;;;;6.15;5.55;;;24.20;99.90;;;;;;5006059;28;20306;-69
2023/05/27 08:45:02;;;;;;;6.43;5.72;;;24.30;99.90;;;;;;5008593;28;20215;-69
2023/05/27 08:47:30;;;;;;;6.18;5.68;;;24.50;99.90;;;;;;5013929;28;20258;-69
2023/05/27 08:49:59;;;;;;;5.97;5.38;;;24.30;99.90;;;;;;5008762;28;20224;-69
2023/05/27 08:52:29;;;;;;;6.05;5.55;;;24.20;99.90;;;;;;5012140;28;20214;-69
2023/05/27 08:54:57;;;;;;;5.75;5.18;;;24.30;99.90;;;;;;5013043;28;20208;-69
2023/05/27 08:57:29;;;;;;;5.30;4.80;;;24.40;99.90;;;;;;5008894;28;20315;-69
2023/05/27 08:59:57;;;;;;;5.78;5.30;;;24.70;99.90;;;;;;5010948;28;20653;-68
2023/05/27 09:02:24;;;;;;;7.28;5.28;;;24.90;99.90;;;;;;5006976;28;20335;-68
2023/05/27 09:04:52;;;;;;;6.95;6.00;;;25.00;99.90;;;;;;5005104;28;20204;-69
2023/05/27 09:07:23;;;;;;;6.88;5.13;;;25.10;99.90;;;;;;5009638;28;20230;-69
2023/05/27 09:09:57;;;;;;;6.53;5.88;;;24.80;99.90;;;;;;5012735;28;20267;-69
2023/05/27 09:12:25;;;;;;;7.15;6.45;;;24.80;99.90;;;;;;5008382;28;20219;-69
2023/05/27 09:14:53;;;;;;;6.50;5.97;;;24.70;99.90;;;;;;5010483;28;20575;-69
2023/05/27 09:17:23;;;;;;;6.13;5.43;;;24.70;99.90;;;;;;5007291;28;20315;-69
2023/05/27 09:19:51;;;;;;;5.93;5.43;;;24.80;99.90;;;;;;5007928;28;20787;-68
2023/05/27 09:22:24;;;;;;;6.35;5.68;;;25.00;99.90;;;;;;5005443;28;20270;-68
2023/05/27 09:24:53;;;;;;;5.43;5.03;;;25.10;99.90;;;;;;5011829;28;20459;-69
2023/05/27 09:27:20;;;;;;;5.00;4.55;;;25.20;99.90;;;;;;5008042;28;20318;-69
2023/05/27 09:29:47;;;;;;;5.90;5.30;;;25.20;99.90;;;;;;5005680;28;20219;-69
2023/05/27 09:32:25;;;;;;;5.97;5.38;;;25.20;99.90;;;;;;5010244;28;20266;-69
2023/05/27 09:34:52;;;;;;;6.05;5.45;;;25.10;99.90;;;;;;5015961;28;20202;-70
2023/05/27 09:37:25;;;;;;;4.47;4.18;;;25.30;99.90;;;;;;5018213;28;20285;-69
2023/05/27 09:39:52;;;;;;;5.95;5.35;;;25.30;99.90;;;;;;5017562;28;20212;-69
2023/05/27 09:42:20;;;;;;;6.00;5.03;;;25.50;99.90;;;;;;5017624;28;20208;-69
2023/05/27 09:44:49;;;;;;;5.45;4.75;;;25.90;99.90;;;;;;5025123;28;20200;-69
2023/05/27 09:47:20;;;;;;;5.93;5.35;;;25.80;99.90;;;;;;5015533;28;20307;-69
2023/05/27 09:49:55;;;;;;;5.05;4.65;;;25.90;99.90;;;;;;5011419;28;20222;-69
2023/05/27 09:52:24;;;;;;;4.57;4.28;;;26.00;99.90;;;;;;5018229;28;20759;-69
2023/05/27 09:54:53;;;;;;;4.90;4.40;;;25.90;99.90;;;;;;5013791;28;20230;-69
2023/05/27 09:57:21;;;;;;;5.38;4.63;;;25.90;99.90;;;;;;5014023;28;20310;-68
2023/05/27 09:59:49;;;;;;;5.13;4.63;;;26.10;99.90;;;;;;5014988;28;20196;-69
2023/05/27 10:02:21;;;;;;;4.65;4.25;;;26.20;99.90;;;;;;5014819;28;20287;-69
2023/05/27 10:04:50;;;;;;;5.07;4.57;;;26.20;99.90;;;;;;5010496;28;20258;-69
2023/05/27 10:07:20;;;;;;;4.00;3.70;;;26.10;99.90;;;;;;5021088;28;20227;-68
2023/05/27 10:09:50;;;;;;;5.63;4.68;;;26.40;99.90;;;;;;5015856;28;20223;-68
2023/05/27 10:12:18;;;;;;;4.80;4.40;;;26.40;99.90;;;;;;5013022;28;20286;-68
2023/05/27 10:14:46;;;;;;;5.97;4.22;;;26.40;99.90;;;;;;5018703;28;20227;-68
2023/05/27 10:17:13;;;;;;;5.32;4.40;;;26.30;99.90;;;;;;5011376;28;20219;-69
2023/05/27 10:19:55;;;;;;;7.10;4.57;;;26.20;99.90;;;;;;5013911;28;20287;-69
2023/05/27 10:22:23;;;;;;;6.47;4.60;;;26.20;99.90;;;;;;5015165;28;20425;-69
2023/05/27 10:24:53;;;;;;;4.82;4.43;;;26.30;99.90;;;;;;5014494;28;20211;-69
2023/05/27 10:27:21;;;;;;;5.38;4.88;;;26.50;99.90;;;;;;5013042;28;20301;-68
2023/05/27 10:29:58;;;;;;;5.22;4.30;;;26.50;99.90;;;;;;5014901;28;20211;-67
2023/05/27 10:32:25;;;;;;;5.95;4.80;;;26.20;99.90;;;;;;5019708;28;20591;-67
2023/05/27 10:34:55;;;;;;;5.72;4.53;;;25.60;99.90;;;;;;5018456;28;20603;-70
2023/05/27 10:37:23;;;;;;;5.15;4.40;;;25.30;99.90;;;;;;5014053;28;20263;-70
2023/05/27 10:39:58;;;;;;;6.15;4.10;;;24.90;99.90;;;;;;5017006;28;20196;-70
2023/05/27 10:42:25;;;;;;;4.47;4.07;;;24.60;99.90;;;;;;5014943;28;20199;-69
2023/05/27 10:45:05;;;;;;;5.43;4.93;;;24.50;99.90;;;;;;5013745;28;20232;-70
2023/05/27 10:47:36;;;;;;;4.47;4.07;;;24.30;99.90;;;;;;5013398;28;20260;-70
2023/05/27 10:50:13;;;;;;;6.57;4.43;;;24.10;99.90;;;;;;5019550;28;20304;-70
2023/05/27 10:52:41;;;;;;;4.32;4.00;;;24.10;99.90;;;;;;5015749;28;20712;-70
2023/05/27 10:55:10;;;;;;;5.15;4.72;;;24.10;99.90;;;;;;5017966;28;20222;-70
2023/05/27 10:57:37;;;;;;;4.60;4.20;;;24.10;99.90;;;;;;5023188;28;20231;-69
2023/05/27 11:00:08;;;;;;;5.13;4.63;;;24.10;99.90;;;;;;5026398;28;20227;-70
2023/05/27 11:02:37;;;;;;;4.47;4.07;;;24.00;99.90;;;;;;5017515;28;20231;-69
2023/05/27 11:05:10;;;;;;;4.50;4.10;;;24.10;99.90;;;;;;5017889;28;20629;-69
2023/05/27 11:07:39;;;;;;;4.47;4.18;;;24.50;99.90;;;;;;5017036;28;20220;-69
2023/05/27 11:10:10;;;;;;;4.00;3.70;;;24.80;99.90;;;;;;5016204;28;20223;-68
2023/05/27 11:12:37;;;;;;;4.72;4.18;;;25.00;99.90;;;;;;5014121;28;20208;-69
2023/05/27 11:15:04;;;;;;;3.97;3.67;;;25.40;99.90;;;;;;5015299;28;20200;-69
2023/05/27 11:17:32;;;;;;;4.28;3.97;;;25.60;99.90;;;;;;5015574;28;20316;-69
2023/05/27 11:19:59;;;;;;;4.78;4.38;;;25.50;99.90;;;;;;5015874;28;20772;-68
2023/05/27 11:22:27;;;;;;;4.18;3.88;;;25.30;99.90;;;;;;5019034;28;20803;-68
2023/05/27 11:24:58;;;;;;;4.40;4.00;;;25.30;99.90;;;;;;5019043;28;20290;-69
2023/05/27 11:27:35;;;;;;;4.25;3.95;;;25.70;99.90;;;;;;5019299;28;20238;-69
2023/05/27 11:30:10;;;;;;;5.32;4.35;;;26.40;99.90;;;;;;5017580;28;20302;-69
2023/05/27 11:32:37;;;;;;;4.60;4.00;;;26.70;99.90;;;;;;5014486;28;20262;-69
2023/05/27 11:35:06;;;;;;;4.10;3.80;;;26.70;99.90;;;;;;5019701;28;20204;-69
2023/05/27 11:37:35;;;;;;;5.65;4.20;;;26.50;99.90;;;;;;5016288;28;20231;-69
2023/05/27 11:40:02;;;;;;;4.38;4.00;;;26.00;99.90;;;;;;5016347;28;20261;-69
2023/05/27 11:42:31;;;;;;;5.93;4.65;;;25.80;99.90;;;;;;5017198;28;20211;-69
2023/05/27 11:45:00;;;;;;;6.60;3.85;;;25.50;99.90;;;;;;5020063;28;20286;-69
2023/05/27 11:47:27;;;;;;;3.75;3.45;;;25.40;99.90;;;;;;5019113;28;20224;-69
2023/05/27 11:49:54;;;;;;;3.80;3.55;;;25.30;99.90;;;;;;5016530;28;20217;-69
2023/05/27 11:52:25;;;;;;;3.90;3.60;;;25.10;99.90;;;;;;5013263;28;20204;-70
2023/05/27 11:54:52;;;;;;;7.30;3.47;;;25.40;99.90;;;;;;5016863;28;20291;-70
2023/05/27 11:57:19;;;;;;;5.07;3.58;;;26.00;99.90;;;;;;5012807;28;20936;-70
2023/05/27 11:59:47;;;;;;;4.32;3.88;;;26.20;99.90;;;;;;5016076;28;20279;-71
2023/05/27 12:02:14;;;;;;;4.32;3.92;;;26.00;99.90;;;;;;5015422;28;20284;-69
2023/05/27 12:04:42;;;;;;;3.85;3.50;;;25.60;99.90;;;;;;5018476;28;20258;-69
2023/05/27 12:07:09;;;;;;;5.82;3.97;;;25.30;99.90;;;;;;5016015;28;20313;-69
2023/05/27 12:09:36;;;;;;;4.10;3.50;;;25.10;99.90;;;;;;5016566;28;20215;-69
2023/05/27 12:12:03;;;;;;;5.15;3.80;;;24.90;99.90;;;;;;5011427;28;20301;-69
2023/05/27 12:14:30;;;;;;;5.82;3.15;;;24.80;99.90;;;;;;5009494;28;20666;-69
2023/05/27 12:16:59;;;;;;;3.63;3.33;;;24.70;99.90;;;;;;5008984;28;20692;-69
2023/05/27 12:19:26;;;;;;;3.28;3.08;;;24.60;99.90;;;;;;5015622;28;20242;-69
2023/05/27 12:21:53;;;;;;;3.20;2.90;;;24.60;99.90;;;;;;5013413;28;20211;-69
2023/05/27 12:24:20;;;;;;;3.30;3.00;;;25.00;99.90;;;;;;5011779;28;20522;-69
2023/05/27 12:26:47;;;;;;;3.85;3.38;;;25.60;99.90;;;;;;5013579;28;20223;-69
2023/05/27 12:29:14;;;;;;;3.75;3.40;;;26.00;99.90;;;;;;5012223;28;20207;-69
2023/05/27 12:31:42;;;;;;;3.60;3.30;;;26.10;99.90;;;;;;5012405;28;20591;-70
2023/05/27 12:34:10;;;;;;;3.28;3.05;;;26.00;99.90;;;;;;5010448;28;20200;-69
2023/05/27 12:36:37;;;;;;;3.67;3.33;;;25.90;99.90;;;;;;5010465;28;20223;-69
2023/05/27 12:39:04;;;;;;;3.88;3.58;;;25.70;99.90;;;;;;5015009;28;20283;-69
2023/05/27 12:41:32;;;;;;;3.22;3.03;;;25.70;99.90;;;;;;5010964;28;20196;-69
2023/05/27 12:43:59;;;;;;;3.13;2.92;;;25.60;99.90;;;;;;5015359;28;20748;-69
2023/05/27 12:46:26;;;;;;;3.40;3.10;;;25.60;99.90;;;;;;5012454;28;20318;-69
2023/05/27 12:48:54;;;;;;;3.42;2.83;;;25.60;99.90;;;;;;5013177;28;20334;-69
2023/05/27 12:51:22;;;;;;;3.30;3.00;;;25.60;99.90;;;;;;5012807;28;20585;-69
2023/05/27 12:53:49;;;;;;;2.97;2.78;;;25.60;99.90;;;;;;5011252;28;20253;-69